Time;durP1;ratioP1;P1;durP2;ratioP2;P2;SDS_P1;SDS_P2;PMS_P1;PMS_P2;Temp;Humidity;BMP_temperature;BMP_pressure;BME280_temperature;BME280_humidity;BME280_pressure;Samples;Min_cycle;Max_cycle;Signal;HPM_P1;HPM_P2
2024/04/01 00:01:13;;;;;;;2.58;0.30;;;13.10;99.90;;;;;;5075906;28;20063;-80
2024/04/01 00:03:38;;;;;;;1.67;0.50;;;13.10;99.90;;;;;;5076915;28;20086;-80
2024/04/01 00:06:04;;;;;;;1.75;0.40;;;13.10;99.90;;;;;;5076248;28;20179;-80
2024/04/01 00:08:29;;;;;;;0.43;0.35;;;13.10;99.90;;;;;;5077022;28;20028;-81
2024/04/01 00:10:55;;;;;;;2.00;0.32;;;13.10;99.90;;;;;;5077355;28;20023;-81
2024/04/01 00:13:21;;;;;;;2.25;0.65;;;13.00;99.90;;;;;;5076204;28;20029;-80
2024/04/01 00:15:46;;;;;;;2.13;0.30;;;13.00;99.90;;;;;;5075638;28;20560;-80
2024/04/01 00:18:12;;;;;;;1.52;0.50;;;13.00;99.90;;;;;;5076430;28;20035;-80
2024/04/01 00:20:38;;;;;;;1.95;0.40;;;13.00;99.90;;;;;;5075662;28;20027;-80
2024/04/01 00:23:04;;;;;;;3.28;0.40;;;13.00;99.90;;;;;;5076257;28;20107;-80
2024/04/01 00:25:31;;;;;;;1.75;0.30;;;13.00;99.90;;;;;;5076851;28;20032;-81
2024/04/01 00:27:57;;;;;;;2.20;0.30;;;13.00;99.90;;;;;;5076285;28;20464;-80
2024/04/01 00:30:22;;;;;;;0.52;0.30;;;13.00;99.90;;;;;;5076928;28;20020;-80
2024/04/01 00:32:48;;;;;;;0.68;0.30;;;12.90;99.90;;;;;;5075708;28;20020;-80
2024/04/01 00:35:17;;;;;;;3.25;0.35;;;12.90;99.90;;;;;;5075755;28;20037;-81
2024/04/01 00:37:43;;;;;;;2.42;0.50;;;12.80;99.90;;;;;;5075088;28;20048;-81
2024/04/01 00:40:08;;;;;;;1.63;0.30;;;12.80;99.90;;;;;;5076585;28;20035;-80
2024/04/01 00:42:35;;;;;;;0.88;0.70;;;12.70;99.90;;;;;;5075118;28;20103;-80
2024/04/01 00:45:00;;;;;;;1.70;0.30;;;12.70;99.90;;;;;;5075237;28;20139;-80
2024/04/01 00:47:26;;;;;;;2.58;0.50;;;12.80;99.90;;;;;;5076505;28;20430;-85
2024/04/01 00:49:53;;;;;;;1.95;0.50;;;12.70;99.90;;;;;;5076478;28;20104;-79
2024/04/01 00:52:19;;;;;;;1.35;0.47;;;12.70;99.90;;;;;;5075556;28;20519;-80
2024/04/01 00:54:46;;;;;;;1.98;0.63;;;12.60;99.90;;;;;;5075709;28;20036;-80
2024/04/01 00:57:14;;;;;;;4.15;0.47;;;12.60;99.90;;;;;;5075456;28;20024;-80
2024/04/01 00:59:40;;;;;;;1.73;0.50;;;12.60;99.90;;;;;;5076089;28;20024;-81
2024/04/01 01:02:06;;;;;;;2.22;0.60;;;12.60;99.90;;;;;;5075319;28;20025;-79
2024/04/01 01:04:34;;;;;;;2.40;0.60;;;12.70;99.90;;;;;;5074793;28;20028;-80
2024/04/01 01:06:59;;;;;;;2.05;0.47;;;12.60;99.90;;;;;;5075466;28;20141;-80
2024/04/01 01:09:25;;;;;;;2.08;0.65;;;12.60;99.90;;;;;;5075269;28;20477;-80
2024/04/01 01:11:51;;;;;;;4.65;0.60;;;12.60;99.90;;;;;;5074384;28;20361;-81
2024/04/01 01:14:17;;;;;;;2.30;0.43;;;12.60;99.90;;;;;;5075065;28;20032;-81
2024/04/01 01:16:42;;;;;;;1.65;0.38;;;12.50;99.90;;;;;;5074806;28;20036;-81
2024/04/01 01:19:09;;;;;;;1.50;0.55;;;12.50;99.90;;;;;;5075042;28;20031;-81
2024/04/01 01:21:35;;;;;;;1.65;0.30;;;12.50;99.90;;;;;;5074254;28;20017;-81
2024/04/01 01:24:03;;;;;;;1.50;0.50;;;12.50;99.90;;;;;;5076020;28;20031;-81
2024/04/01 01:26:29;;;;;;;1.23;0.60;;;12.50;99.90;;;;;;5074208;28;20021;-84
2024/04/01 01:28:54;;;;;;;1.17;0.45;;;12.50;99.90;;;;;;5074509;28;20016;-81
2024/04/01 01:31:20;;;;;;;0.60;0.43;;;12.50;99.90;;;;;;5074585;28;20024;-80
2024/04/01 01:33:47;;;;;;;2.92;0.50;;;12.40;99.90;;;;;;5073556;28;20027;-81
2024/04/01 01:36:13;;;;;;;4.38;0.35;;;12.40;99.90;;;;;;5074339;28;20032;-81
2024/04/01 01:38:39;;;;;;;3.15;1.08;;;12.40;99.90;;;;;;5073682;28;20027;-80
2024/04/01 01:41:04;;;;;;;1.00;0.40;;;12.40;99.90;;;;;;5074513;28;20025;-80
2024/04/01 01:43:30;;;;;;;1.20;0.38;;;12.40;99.90;;;;;;5073712;28;20027;-86
2024/04/01 01:45:55;;;;;;;1.23;0.50;;;12.50;99.90;;;;;;5073705;28;20056;-79
2024/04/01 01:48:21;;;;;;;0.88;0.40;;;12.40;99.90;;;;;;5074299;28;20104;-80
2024/04/01 01:50:46;;;;;;;0.95;0.30;;;12.50;99.90;;;;;;5074909;28;20016;-80
2024/04/01 01:53:12;;;;;;;2.10;0.40;;;12.30;99.90;;;;;;5075248;28;20056;-80
2024/04/01 01:55:38;;;;;;;1.52;0.50;;;12.40;99.90;;;;;;5074898;28;20028;-81
2024/04/01 01:58:03;;;;;;;1.77;0.45;;;12.40;99.90;;;;;;5073939;28;20020;-79
2024/04/01 02:00:29;;;;;;;1.25;0.40;;;12.40;99.90;;;;;;5073908;28;20085;-84
2024/04/01 02:02:56;;;;;;;0.60;0.45;;;12.30;99.90;;;;;;5073438;28;20107;-79
2024/04/01 02:05:21;;;;;;;0.35;0.30;;;12.30;99.90;;;;;;5073640;28;20366;-79
2024/04/01 02:07:47;;;;;;;2.88;0.60;;;12.40;99.90;;;;;;5073024;28;20035;-81
2024/04/01 02:10:21;;;;;;;1.00;0.35;;;12.20;99.90;;;;;;5075153;28;20021;-81
2024/04/01 02:12:50;;;;;;;1.00;0.57;;;12.20;99.90;;;;;;5073649;28;20025;-81
2024/04/01 02:15:19;;;;;;;2.28;0.40;;;12.20;99.90;;;;;;5075173;28;20103;-81
2024/04/01 02:17:45;;;;;;;0.98;0.50;;;12.20;99.90;;;;;;5073411;28;20021;-82
2024/04/01 02:20:15;;;;;;;1.92;0.45;;;12.20;99.90;;;;;;5074466;28;20031;-81
2024/04/01 02:22:43;;;;;;;0.68;0.40;;;12.20;99.90;;;;;;5067465;28;20021;-81
2024/04/01 02:25:08;;;;;;;1.73;0.35;;;12.20;99.90;;;;;;5054927;28;20031;-79
2024/04/01 02:27:34;;;;;;;2.72;0.55;;;12.30;99.90;;;;;;5052816;28;20115;-86
2024/04/01 02:29:59;;;;;;;3.80;0.40;;;12.20;99.90;;;;;;5053520;28;20450;-79
2024/04/01 02:32:25;;;;;;;0.70;0.38;;;12.20;99.90;;;;;;5054631;28;20442;-79
2024/04/01 02:34:51;;;;;;;1.20;0.45;;;12.10;99.90;;;;;;5053048;28;20603;-79
2024/04/01 02:37:16;;;;;;;2.75;0.85;;;12.10;99.90;;;;;;5089260;28;20031;-79
2024/04/01 02:39:42;;;;;;;1.10;0.40;;;12.10;99.90;;;;;;5092826;28;20024;-79
2024/04/01 02:42:08;;;;;;;2.83;0.45;;;12.10;99.90;;;;;;5074805;28;20129;-79
2024/04/01 02:44:34;;;;;;;0.63;0.55;;;12.00;99.90;;;;;;5080910;28;20046;-87
2024/04/01 02:46:59;;;;;;;2.75;0.60;;;11.90;99.90;;;;;;5094575;28;20032;-79
2024/04/01 02:49:25;;;;;;;1.83;0.60;;;11.90;99.90;;;;;;5094364;28;20024;-78
2024/04/01 02:51:50;;;;;;;0.50;0.30;;;11.90;99.90;;;;;;5076407;28;20472;-79
2024/04/01 02:54:16;;;;;;;1.88;0.60;;;12.00;99.90;;;;;;5094766;28;20031;-79
2024/04/01 02:56:41;;;;;;;2.13;0.30;;;12.00;99.90;;;;;;5094386;28;20100;-79
2024/04/01 02:59:09;;;;;;;1.75;0.40;;;12.10;99.90;;;;;;5076913;28;20441;-79
2024/04/01 03:01:40;;;;;;;2.53;0.47;;;12.00;99.90;;;;;;5077023;28;20031;-83
2024/04/01 03:04:07;;;;;;;4.18;0.30;;;12.00;99.90;;;;;;5077097;28;20106;-79
2024/04/01 03:06:32;;;;;;;3.30;0.50;;;12.10;99.90;;;;;;5094589;28;20046;-79
2024/04/01 03:08:59;;;;;;;1.65;0.40;;;12.00;99.90;;;;;;5076190;28;20368;-79
2024/04/01 03:11:24;;;;;;;0.60;0.43;;;12.00;99.90;;;;;;5076993;28;20054;-79
2024/04/01 03:13:50;;;;;;;0.98;0.60;;;12.10;99.90;;;;;;5075883;28;20446;-80
2024/04/01 03:16:18;;;;;;;0.85;0.40;;;12.10;99.90;;;;;;5076610;28;20081;-79
2024/04/01 03:18:43;;;;;;;1.95;0.60;;;12.10;99.90;;;;;;5075874;28;20024;-79
2024/04/01 03:21:09;;;;;;;2.20;1.40;;;12.10;99.90;;;;;;5093928;28;20024;-78
2024/04/01 03:23:35;;;;;;;2.58;0.60;;;12.00;99.90;;;;;;5076483;28;20031;-85
2024/04/01 03:26:00;;;;;;;0.95;0.57;;;12.00;99.90;;;;;;5076278;28;20412;-79
2024/04/01 03:28:26;;;;;;;1.23;0.35;;;12.00;99.90;;;;;;5094250;28;20085;-78
2024/04/01 03:30:53;;;;;;;2.13;1.05;;;12.00;99.90;;;;;;5075757;28;20030;-78
2024/04/01 03:33:18;;;;;;;2.38;0.47;;;11.90;99.90;;;;;;5076163;28;20022;-78
2024/04/01 03:35:44;;;;;;;2.88;0.60;;;11.80;99.90;;;;;;5095605;28;20467;-79
2024/04/01 03:38:10;;;;;;;1.85;0.50;;;11.80;99.90;;;;;;5098422;28;20027;-78
2024/04/01 03:40:40;;;;;;;1.80;0.50;;;11.80;99.90;;;;;;5080511;28;20016;-83
2024/04/01 03:43:09;;;;;;;2.72;0.57;;;11.90;99.90;;;;;;5098194;28;20495;-78
2024/04/01 03:45:35;;;;;;;1.85;0.52;;;11.90;99.90;;;;;;5098333;28;20056;-78
2024/04/01 03:48:05;;;;;;;3.22;1.00;;;11.90;99.90;;;;;;5097920;28;20028;-79
2024/04/01 03:50:31;;;;;;;1.02;0.50;;;11.80;99.90;;;;;;5080243;28;20031;-79
2024/04/01 03:52:57;;;;;;;1.23;0.80;;;11.80;99.90;;;;;;5079819;28;20020;-78
2024/04/01 03:55:22;;;;;;;1.70;0.40;;;11.80;99.90;;;;;;5080005;28;20039;-79
2024/04/01 03:57:48;;;;;;;2.05;0.55;;;11.80;99.90;;;;;;5079634;28;20024;-80
2024/04/01 04:00:14;;;;;;;4.28;0.80;;;11.80;99.90;;;;;;5079903;28;20069;-79
2024/04/01 04:02:44;;;;;;;2.60;0.60;;;11.80;99.90;;;;;;5079579;28;20027;-84
2024/04/01 04:05:10;;;;;;;1.95;0.75;;;11.90;99.90;;;;;;5080178;28;20035;-80
2024/04/01 04:07:36;;;;;;;0.40;0.40;;;11.90;99.90;;;;;;5079511;28;20024;-80
2024/04/01 04:10:05;;;;;;;1.70;0.50;;;11.80;99.90;;;;;;5097079;28;20052;-80
2024/04/01 04:12:32;;;;;;;1.17;0.50;;;11.80;99.90;;;;;;5097714;28;20028;-79
2024/04/01 04:15:05;;;;;;;2.47;0.50;;;11.90;99.90;;;;;;5096899;28;20035;-80
2024/04/01 04:17:31;;;;;;;1.55;0.65;;;11.90;99.90;;;;;;5079644;28;20024;-81
2024/04/01 04:19:56;;;;;;;1.15;0.60;;;11.90;99.90;;;;;;5086882;28;20024;-83
2024/04/01 04:22:22;;;;;;;1.70;0.40;;;11.80;99.90;;;;;;5111771;28;20023;-82
2024/04/01 04:24:48;;;;;;;1.55;0.60;;;11.80;99.90;;;;;;5099032;28;20027;-82
2024/04/01 04:27:13;;;;;;;3.08;0.60;;;11.80;99.90;;;;;;5099553;28;20505;-81
2024/04/01 04:29:39;;;;;;;0.80;0.50;;;11.80;99.90;;;;;;5117538;28;20016;-83
2024/04/01 04:32:12;;;;;;;1.73;0.40;;;11.70;99.90;;;;;;5098943;28;20456;-79
2024/04/01 04:34:39;;;;;;;1.75;0.40;;;11.60;99.90;;;;;;5098910;28;20059;-85
2024/04/01 04:37:06;;;;;;;1.48;0.52;;;11.60;99.90;;;;;;5102210;28;20016;-80
2024/04/01 04:39:36;;;;;;;0.60;0.55;;;11.60;99.90;;;;;;5079063;28;20419;-79
2024/04/01 04:42:01;;;;;;;2.35;0.90;;;11.60;99.90;;;;;;5078753;28;20736;-79
2024/04/01 04:44:27;;;;;;;1.67;0.70;;;11.60;99.90;;;;;;5078935;28;20139;-80
2024/04/01 04:46:53;;;;;;;0.70;0.50;;;11.40;99.90;;;;;;5078771;28;20028;-79
2024/04/01 04:49:19;;;;;;;3.47;0.50;;;11.40;99.90;;;;;;5097049;28;20153;-80
2024/04/01 04:51:45;;;;;;;2.20;0.43;;;11.40;99.90;;;;;;5078818;28;20096;-80
2024/04/01 04:54:10;;;;;;;2.53;0.52;;;11.40;99.90;;;;;;5079381;28;20020;-80
2024/04/01 04:56:36;;;;;;;6.43;0.60;;;11.40;99.90;;;;;;5078971;28;20024;-80
2024/04/01 04:59:03;;;;;;;5.97;1.02;;;11.50;99.90;;;;;;5096398;28;20090;-80
2024/04/01 05:01:30;;;;;;;1.20;0.60;;;11.50;99.90;;;;;;5096606;28;20027;-80
2024/04/01 05:03:55;;;;;;;2.22;0.50;;;11.60;99.90;;;;;;5077883;28;20023;-81
2024/04/01 05:06:21;;;;;;;1.92;0.55;;;11.60;99.90;;;;;;5096431;28;20111;-80
2024/04/01 05:08:46;;;;;;;3.17;0.63;;;11.70;99.90;;;;;;5095786;28;20028;-80
2024/04/01 05:11:12;;;;;;;2.13;0.80;;;11.70;99.90;;;;;;5078199;28;20443;-80
2024/04/01 05:13:37;;;;;;;0.60;0.30;;;11.60;99.90;;;;;;5096307;28;20020;-80
2024/04/01 05:16:05;;;;;;;1.33;0.63;;;11.60;99.90;;;;;;5077719;28;20147;-80
2024/04/01 05:18:34;;;;;;;1.85;0.63;;;11.50;99.90;;;;;;5096351;28;20047;-80
2024/04/01 05:21:01;;;;;;;2.20;0.40;;;11.50;99.90;;;;;;5078032;28;20024;-80
2024/04/01 05:23:27;;;;;;;0.85;0.50;;;11.50;99.90;;;;;;5078351;28;20020;-80
2024/04/01 05:25:52;;;;;;;0.93;0.60;;;11.40;99.90;;;;;;5077975;28;20031;-80
2024/04/01 05:28:18;;;;;;;0.55;0.38;;;11.40;99.90;;;;;;5078513;28;20369;-80
2024/04/01 05:30:44;;;;;;;2.58;0.60;;;11.40;99.90;;;;;;5077920;28;20031;-84
2024/04/01 05:33:09;;;;;;;1.73;0.50;;;11.40;99.90;;;;;;5095907;28;20490;-80
2024/04/01 05:35:37;;;;;;;5.30;0.93;;;11.40;99.90;;;;;;5077988;28;20028;-79
2024/04/01 05:38:03;;;;;;;1.42;0.77;;;11.40;99.90;;;;;;5095562;28;20568;-78
2024/04/01 05:40:29;;;;;;;1.33;0.80;;;11.40;99.90;;;;;;5077825;28;20020;-79
2024/04/01 05:42:54;;;;;;;1.67;0.52;;;11.40;99.90;;;;;;5095341;28;20095;-79
2024/04/01 05:45:20;;;;;;;2.65;0.70;;;11.30;99.90;;;;;;5095167;28;20059;-79
2024/04/01 05:47:48;;;;;;;1.55;0.70;;;11.30;99.90;;;;;;5077462;28;20464;-85
2024/04/01 05:50:17;;;;;;;3.08;0.82;;;11.30;99.90;;;;;;5095795;28;20016;-78
2024/04/01 05:52:46;;;;;;;1.67;0.50;;;11.30;99.90;;;;;;5077639;28;20111;-81
2024/04/01 05:55:13;;;;;;;2.05;0.55;;;11.30;99.90;;;;;;5077867;28;20120;-80
2024/04/01 05:57:39;;;;;;;1.08;0.40;;;11.30;99.90;;;;;;5094802;28;20020;-80
2024/04/01 06:00:05;;;;;;;1.77;0.47;;;11.30;99.90;;;;;;5077191;28;20020;-79
2024/04/01 06:02:31;;;;;;;0.95;0.55;;;11.30;99.90;;;;;;5077371;28;20020;-83
2024/04/01 06:04:56;;;;;;;0.95;0.55;;;11.30;99.90;;;;;;5094887;28;20468;-81
2024/04/01 06:07:22;;;;;;;1.10;0.50;;;11.40;99.90;;;;;;5077387;28;20027;-81
2024/04/01 06:09:48;;;;;;;1.15;0.60;;;11.40;99.90;;;;;;5094912;28;20016;-81
2024/04/01 06:12:14;;;;;;;1.95;0.60;;;11.40;99.90;;;;;;5095499;28;20346;-81
2024/04/01 06:14:39;;;;;;;1.58;0.52;;;11.40;99.90;;;;;;5077604;28;20028;-82
2024/04/01 06:17:05;;;;;;;1.17;0.50;;;11.50;99.90;;;;;;5076834;28;20062;-80
2024/04/01 06:19:30;;;;;;;2.40;0.50;;;11.50;99.90;;;;;;5077149;28;20048;-79
2024/04/01 06:21:56;;;;;;;1.33;0.50;;;11.50;99.90;;;;;;5076732;28;20027;-80
2024/04/01 06:24:21;;;;;;;1.67;0.50;;;11.50;99.90;;;;;;5076858;28;20525;-79
2024/04/01 06:26:47;;;;;;;3.83;0.90;;;11.40;99.90;;;;;;5094318;28;20403;-85
2024/04/01 06:29:13;;;;;;;0.82;0.40;;;11.50;99.90;;;;;;5094737;28;20065;-79
2024/04/01 06:31:39;;;;;;;2.97;0.63;;;11.50;99.90;;;;;;5077064;28;20028;-80
2024/04/01 06:34:04;;;;;;;2.15;0.70;;;11.40;99.90;;;;;;5076222;28;20029;-80
2024/04/01 06:36:31;;;;;;;1.55;0.80;;;11.40;99.90;;;;;;5076733;28;20024;-79
2024/04/01 06:38:57;;;;;;;2.67;0.70;;;11.30;99.90;;;;;;5076486;28;20360;-80
2024/04/01 06:41:23;;;;;;;0.73;0.43;;;11.30;99.90;;;;;;5076967;28;20073;-80
2024/04/01 06:43:48;;;;;;;0.73;0.60;;;11.20;99.90;;;;;;5076339;28;20015;-84
2024/04/01 06:46:14;;;;;;;1.02;0.40;;;11.20;99.90;;;;;;5076835;28;20115;-80
2024/04/01 06:48:39;;;;;;;0.70;0.30;;;11.20;99.90;;;;;;5076580;28;20020;-80
2024/04/01 06:51:05;;;;;;;0.47;0.30;;;11.20;99.90;;;;;;5076081;28;20112;-80
2024/04/01 06:53:30;;;;;;;0.43;0.32;;;11.20;99.90;;;;;;5076592;28;20023;-80
2024/04/01 06:55:56;;;;;;;1.70;0.38;;;11.20;99.90;;;;;;5093956;28;20028;-80
2024/04/01 06:58:21;;;;;;;1.98;0.40;;;11.20;99.90;;;;;;5094310;28;20024;-79
2024/04/01 07:00:49;;;;;;;2.85;0.30;;;11.20;99.90;;;;;;5093904;28;20028;-85
2024/04/01 07:03:15;;;;;;;2.80;0.30;;;11.20;99.90;;;;;;5076652;28;20051;-81
2024/04/01 07:05:42;;;;;;;0.28;0.28;;;11.20;99.90;;;;;;5076349;28;20046;-81
2024/04/01 07:08:07;;;;;;;1.50;0.30;;;11.20;99.90;;;;;;5093814;28;20020;-80
2024/04/01 07:10:33;;;;;;;4.43;1.80;;;11.20;99.90;;;;;;5076532;28;20462;-82
2024/04/01 07:12:59;;;;;;;0.98;0.40;;;11.20;99.90;;;;;;5075896;28;20028;-81
2024/04/01 07:15:24;;;;;;;0.40;0.30;;;11.20;99.90;;;;;;5076755;28;20071;-82
2024/04/01 07:17:51;;;;;;;0.70;0.40;;;11.10;99.90;;;;;;5094162;28;20035;-86
2024/04/01 07:20:17;;;;;;;1.08;0.25;;;11.20;99.90;;;;;;5076444;28;20472;-80
2024/04/01 07:22:43;;;;;;;0.28;0.25;;;11.10;99.90;;;;;;5094190;28;20024;-79
2024/04/01 07:25:08;;;;;;;0.40;0.40;;;11.20;99.90;;;;;;5093828;28;20031;-80
2024/04/01 07:27:34;;;;;;;0.30;0.30;;;11.20;99.90;;;;;;5094318;28;20024;-81
2024/04/01 07:30:07;;;;;;;1.10;0.20;;;11.20;99.90;;;;;;5093706;28;20100;-81
2024/04/01 07:32:34;;;;;;;0.88;0.20;;;11.20;99.90;;;;;;5076474;28;20107;-80
2024/04/01 07:35:00;;;;;;;0.20;0.20;;;11.10;99.90;;;;;;5093270;28;20020;-82
2024/04/01 07:37:26;;;;;;;0.98;0.25;;;11.10;99.90;;;;;;5093982;28;20023;-81
2024/04/01 07:39:55;;;;;;;0.47;0.20;;;11.10;99.90;;;;;;5075548;28;20047;-82
2024/04/01 07:42:21;;;;;;;0.20;0.20;;;11.10;99.90;;;;;;5075863;28;20035;-84
2024/04/01 07:44:47;;;;;;;0.20;0.20;;;11.10;99.90;;;;;;5093366;28;20043;-81
2024/04/01 07:47:13;;;;;;;0.20;0.20;;;11.10;99.90;;;;;;5075636;28;20081;-81
2024/04/01 07:49:39;;;;;;;1.60;0.50;;;11.10;99.90;;;;;;5094085;28;20023;-81
2024/04/01 07:52:06;;;;;;;0.40;0.40;;;11.00;99.90;;;;;;5075547;28;20016;-81
2024/04/01 07:54:32;;;;;;;2.58;0.20;;;11.00;99.90;;;;;;5076255;28;20115;-85
2024/04/01 07:57:02;;;;;;;0.50;0.20;;;11.10;99.90;;;;;;5076252;28;20081;-84
2024/04/01 07:59:31;;;;;;;0.20;0.17;;;11.10;99.90;;;;;;5094396;28;20016;-80
2024/04/01 08:01:58;;;;;;;1.42;0.30;;;11.10;99.90;;;;;;5092854;28;20456;-84
2024/04/01 08:04:23;;;;;;;0.22;0.10;;;11.10;99.90;;;;;;5076092;28;20016;-86
2024/04/01 08:06:50;;;;;;;0.17;0.17;;;11.10;99.90;;;;;;5075982;28;20028;-82
2024/04/01 08:09:16;;;;;;;0.10;0.10;;;11.20;99.90;;;;;;5075780;28;20019;-84
2024/04/01 08:11:42;;;;;;;0.45;0.15;;;11.20;99.90;;;;;;5076061;28;20564;-83
2024/04/01 08:14:08;;;;;;;0.10;0.10;;;11.20;99.90;;;;;;5075509;28;20051;-84
2024/04/01 08:16:33;;;;;;;0.10;0.10;;;11.20;99.90;;;;;;5075863;28;20141;-83
2024/04/01 08:19:00;;;;;;;0.50;0.20;;;11.00;99.90;;;;;;5075515;28;20119;-83
2024/04/01 08:21:26;;;;;;;0.70;0.30;;;11.00;99.90;;;;;;5077112;28;20027;-81
2024/04/01 08:23:51;;;;;;;0.32;0.10;;;11.00;99.90;;;;;;5079594;28;20111;-85
2024/04/01 08:26:17;;;;;;;1.02;0.10;;;10.90;99.90;;;;;;5079469;28;20056;-84
2024/04/01 08:28:43;;;;;;;0.10;0.10;;;10.90;99.90;;;;;;5079807;28;20349;-84
2024/04/01 08:31:08;;;;;;;0.45;0.10;;;10.80;99.90;;;;;;5078856;28;20024;-83
2024/04/01 08:33:34;;;;;;;0.10;0.10;;;10.80;99.90;;;;;;5097203;28;20077;-83
2024/04/01 08:36:00;;;;;;;0.20;0.20;;;10.80;99.90;;;;;;5097382;28;20039;-86
2024/04/01 08:38:26;;;;;;;0.85;0.13;;;10.80;99.90;;;;;;5097674;28;20028;-88
2024/04/01 08:41:05;;;;;;;0.20;0.20;;;10.90;99.90;;;;;;5079021;28;20028;-87
2024/04/01 08:43:35;;;;;;;0.10;0.10;;;10.90;99.90;;;;;;5079277;28;20030;-83
2024/04/01 08:46:02;;;;;;;0.20;0.20;;;10.90;99.90;;;;;;5078908;28;20048;-83
2024/04/01 08:48:31;;;;;;;0.38;0.20;;;10.90;99.90;;;;;;5078896;28;20047;-83
2024/04/01 08:51:02;;;;;;;0.45;0.30;;;10.90;99.90;;;;;;5096613;28;20038;-85
2024/04/01 08:53:48;;;;;;;4.55;0.38;;;10.90;99.90;;;;;;5079338;28;20445;-85
2024/04/01 08:56:14;;;;;;;0.40;0.40;;;11.00;99.90;;;;;;5096490;28;20035;-82
2024/04/01 08:58:39;;;;;;;1.20;0.50;;;11.00;99.90;;;;;;5078853;28;20020;-85
2024/04/01 09:01:05;;;;;;;0.73;0.35;;;11.00;99.90;;;;;;5078956;28;20408;-89
2024/04/01 09:03:31;;;;;;;0.30;0.30;;;11.00;99.90;;;;;;5078815;28;20020;-86
2024/04/01 09:05:58;;;;;;;0.35;0.30;;;11.00;99.90;;;;;;5079311;28;20024;-85
2024/04/01 09:08:25;;;;;;;0.95;0.57;;;11.00;99.90;;;;;;5097236;28;20016;-89
2024/04/01 09:10:52;;;;;;;2.70;0.30;;;11.00;99.90;;;;;;5097047;28;20449;-91
2024/04/01 09:13:19;;;;;;;0.30;0.30;;;11.00;99.90;;;;;;5078964;28;20465;-84
2024/04/01 09:15:48;;;;;;;1.55;0.30;;;11.00;99.90;;;;;;5078409;28;20185;-86
2024/04/01 09:18:15;;;;;;;0.52;0.20;;;11.00;99.90;;;;;;5078726;28;20052;-89
2024/04/01 09:20:41;;;;;;;0.70;0.30;;;11.10;99.90;;;;;;5096868;28;20357;-85
2024/04/01 09:23:08;;;;;;;1.00;0.38;;;11.10;99.90;;;;;;5078889;28;20476;-87
2024/04/01 09:25:34;;;;;;;1.20;0.30;;;11.00;99.90;;;;;;5079157;28;20057;-88
2024/04/01 09:27:59;;;;;;;0.60;0.40;;;10.90;99.90;;;;;;5078812;28;20115;-85
2024/04/01 09:30:25;;;;;;;0.55;0.30;;;10.90;99.90;;;;;;5097521;28;20373;-91
2024/04/01 09:32:51;;;;;;;0.32;0.32;;;10.90;99.90;;;;;;5078524;28;20027;-85
2024/04/01 09:35:17;;;;;;;0.80;0.40;;;10.80;99.90;;;;;;5096335;28;20031;-83
2024/04/01 09:37:43;;;;;;;0.50;0.30;;;10.80;99.90;;;;;;5096715;28;20518;-89
2024/04/01 09:40:10;;;;;;;0.70;0.40;;;10.90;99.90;;;;;;5079060;28;20024;-89
2024/04/01 09:42:36;;;;;;;0.55;0.22;;;10.90;99.90;;;;;;5079088;28;20031;-87
2024/04/01 09:45:07;;;;;;;0.28;0.20;;;10.80;99.90;;;;;;5074690;28;20186;-91
2024/04/01 09:47:37;;;;;;;0.30;0.30;;;10.80;99.90;;;;;;5075664;28;20369;-91
2024/04/01 09:50:04;;;;;;;0.82;0.30;;;10.90;99.90;;;;;;5074976;28;20440;-90
2024/04/01 09:52:29;;;;;;;0.68;0.40;;;10.90;99.90;;;;;;5077697;28;20017;-89
2024/04/01 09:55:05;;;;;;;0.70;0.50;;;10.90;99.90;;;;;;5078118;28;20041;-85
2024/04/01 09:58:12;;;;;;;0.32;0.32;;;10.90;99.90;;;;;;5076086;28;20505;-90
2024/04/01 10:00:41;;;;;;;0.28;0.28;;;10.90;99.90;;;;;;5049393;28;20359;-88
2024/04/01 10:03:38;;;;;;;0.52;0.30;;;10.90;99.90;;;;;;5075431;28;20115;-84
2024/04/01 10:06:25;;;;;;;0.63;0.35;;;10.80;99.90;;;;;;5077476;28;20111;-89
2024/04/01 10:09:15;;;;;;;0.45;0.30;;;10.80;99.90;;;;;;5077792;28;20104;-89
2024/04/01 10:11:56;;;;;;;0.35;0.35;;;10.70;99.90;;;;;;5075848;28;20062;-90
2024/04/01 10:14:52;;;;;;;1.17;0.40;;;10.70;99.90;;;;;;5074899;28;20069;-87
2024/04/01 10:17:56;;;;;;;0.63;0.40;;;10.50;99.90;;;;;;5076002;28;20040;-88
2024/04/01 10:20:31;;;;;;;0.35;0.20;;;10.60;99.90;;;;;;5075924;28;20496;-86
2024/04/01 10:23:21;;;;;;;1.20;0.30;;;10.60;99.90;;;;;;5075611;28;20020;-86
2024/04/01 10:26:05;;;;;;;1.50;0.30;;;10.70;99.90;;;;;;5074717;28;20373;-85
2024/04/01 10:28:47;;;;;;;0.50;0.20;;;10.80;99.90;;;;;;5073823;28;20048;-89
2024/04/01 10:31:34;;;;;;;1.33;0.28;;;10.80;99.90;;;;;;5070999;28;20058;-88
2024/04/01 10:34:11;;;;;;;0.40;0.25;;;10.90;99.90;;;;;;5053023;28;20028;-85
2024/04/01 10:37:01;;;;;;;0.32;0.22;;;10.90;99.90;;;;;;5053774;28;20033;-86
2024/04/01 10:39:50;;;;;;;0.43;0.30;;;11.00;99.90;;;;;;5054048;28;20412;-85
2024/04/01 10:42:49;;;;;;;0.30;0.30;;;11.00;99.90;;;;;;5054397;28;20043;-85
2024/04/01 10:45:52;;;;;;;0.30;0.30;;;11.00;99.90;;;;;;5052809;28;20056;-92
2024/04/01 10:48:25;;;;;;;0.60;0.30;;;10.90;99.90;;;;;;5053520;28;20071;-90
2024/04/01 10:51:28;;;;;;;1.50;0.20;;;10.80;99.90;;;;;;5053742;28;20392;-89
2024/04/01 10:54:09;;;;;;;0.43;0.30;;;10.80;99.90;;;;;;5053651;28;20462;-86
2024/04/01 10:56:45;;;;;;;0.40;0.30;;;10.80;99.90;;;;;;5054822;28;20483;-92
2024/04/01 10:59:41;;;;;;;0.30;0.30;;;10.80;99.90;;;;;;5053265;28;20262;-86
2024/04/01 11:02:43;;;;;;;0.63;0.57;;;10.80;99.90;;;;;;5066406;28;20024;-83
2024/04/01 11:05:26;;;;;;;0.50;0.40;;;10.80;99.90;;;;;;5073923;28;20404;-85
2024/04/01 11:08:21;;;;;;;0.38;0.20;;;10.80;99.90;;;;;;5070554;28;20073;-88
2024/04/01 11:10:58;;;;;;;0.20;0.20;;;10.70;99.90;;;;;;5067544;28;20081;-85
2024/04/01 11:13:26;;;;;;;0.45;0.40;;;10.70;99.90;;;;;;5074256;28;20028;-84
2024/04/01 11:15:56;;;;;;;0.95;0.20;;;10.70;99.90;;;;;;5072706;28;20040;-84
2024/04/01 11:18:34;;;;;;;0.32;0.32;;;10.60;99.90;;;;;;5065496;28;20021;-85
2024/04/01 11:21:13;;;;;;;0.38;0.20;;;10.60;99.90;;;;;;5053169;28;20035;-86
2024/04/01 11:24:30;;;;;;;0.20;0.20;;;10.60;99.90;;;;;;5063106;28;20462;-86
2024/04/01 11:27:18;;;;;;;0.32;0.20;;;10.50;99.90;;;;;;5055884;28;20040;-85
2024/04/01 11:29:43;;;;;;;0.40;0.22;;;10.50;99.90;;;;;;5071727;28;20020;-81
2024/04/01 11:32:11;;;;;;;0.50;0.30;;;10.60;99.90;;;;;;5055285;28;20111;-82
2024/04/01 11:34:54;;;;;;;0.35;0.20;;;10.60;99.90;;;;;;5068989;28;20040;-81
2024/04/01 11:37:51;;;;;;;1.08;0.52;;;10.50;99.90;;;;;;5065511;28;20377;-83
2024/04/01 11:40:21;;;;;;;0.28;0.20;;;10.50;99.90;;;;;;5065307;28;20058;-80
2024/04/01 11:42:54;;;;;;;0.10;0.10;;;10.60;99.90;;;;;;5064265;28;20021;-78
2024/04/01 11:45:25;;;;;;;0.90;0.40;;;10.60;99.90;;;;;;5066409;28;20052;-78
2024/04/01 11:47:52;;;;;;;0.70;0.30;;;10.60;99.90;;;;;;5061446;28;20039;-83
2024/04/01 11:50:19;;;;;;;0.68;0.20;;;10.70;99.90;;;;;;5059629;28;20020;-79
2024/04/01 11:53:07;;;;;;;0.32;0.20;;;10.60;99.90;;;;;;5068227;28;20028;-83
2024/04/01 11:55:33;;;;;;;0.20;0.20;;;10.70;99.90;;;;;;5064448;28;20032;-77
2024/04/01 11:58:12;;;;;;;0.10;0.10;;;10.70;99.90;;;;;;5067765;28;20032;-78
2024/04/01 12:00:50;;;;;;;2.08;0.20;;;10.90;99.90;;;;;;5058682;28;20044;-77
2024/04/01 12:03:15;;;;;;;0.50;0.20;;;10.80;99.90;;;;;;5074007;28;20070;-77
2024/04/01 12:05:54;;;;;;;1.13;0.20;;;10.80;99.90;;;;;;5075491;28;20115;-76
2024/04/01 12:08:25;;;;;;;0.40;0.20;;;11.00;99.90;;;;;;5074953;28;20021;-76
2024/04/01 12:10:52;;;;;;;0.80;0.30;;;11.00;99.90;;;;;;5077422;28;20035;-79
2024/04/01 12:13:27;;;;;;;1.08;0.10;;;10.80;99.90;;;;;;5075950;28;20020;-80
2024/04/01 12:15:58;;;;;;;0.65;0.25;;;10.70;99.90;;;;;;5076563;28;20029;-81
2024/04/01 12:18:24;;;;;;;0.20;0.20;;;10.70;99.90;;;;;;5077563;28;20024;-87
2024/04/01 12:20:55;;;;;;;0.20;0.20;;;10.70;99.90;;;;;;5077508;28;20032;-84
2024/04/01 12:23:22;;;;;;;0.25;0.17;;;10.90;99.90;;;;;;5075754;28;20036;-82
2024/04/01 12:25:48;;;;;;;0.10;0.10;;;11.00;99.90;;;;;;5076450;28;20122;-77
2024/04/01 12:28:14;;;;;;;0.20;0.17;;;11.10;99.90;;;;;;5076521;28;20115;-85
2024/04/01 12:30:41;;;;;;;10.40;0.30;;;11.20;99.90;;;;;;5076355;28;20031;-79
2024/04/01 12:33:09;;;;;;;0.10;0.10;;;11.30;99.90;;;;;;5075774;28;20024;-86
2024/04/01 12:35:38;;;;;;;0.20;0.20;;;11.20;99.90;;;;;;5076034;28;20491;-77
2024/04/01 12:38:04;;;;;;;0.10;0.10;;;11.20;99.90;;;;;;5075228;28;20040;-83
2024/04/01 12:40:46;;;;;;;0.15;0.15;;;11.10;99.90;;;;;;5075577;28;20021;-78
2024/04/01 12:43:15;;;;;;;0.88;0.20;;;11.10;99.90;;;;;;5075152;28;20124;-79
2024/04/01 12:45:43;;;;;;;0.10;0.10;;;10.90;99.90;;;;;;5075282;28;20400;-78
2024/04/01 12:48:14;;;;;;;0.10;0.10;;;10.80;99.90;;;;;;5074910;28;20028;-81
2024/04/01 12:50:47;;;;;;;0.10;0.10;;;10.70;99.90;;;;;;5076644;28;20070;-83
2024/04/01 12:53:27;;;;;;;0.20;0.20;;;10.80;99.90;;;;;;5074807;28;20458;-83
2024/04/01 12:56:00;;;;;;;0.20;0.10;;;10.80;99.90;;;;;;5075721;28;20037;-82
2024/04/01 12:58:40;;;;;;;0.17;0.17;;;11.00;99.90;;;;;;5075562;28;20032;-82